Time;durP1;ratioP1;P1;durP2;ratioP2;P2;SDS_P1;SDS_P2;PMS_P1;PMS_P2;Temp;Humidity;BMP_temperature;BMP_pressure;BME280_temperature;BME280_humidity;BME280_pressure;Samples;Min_cycle;Max_cycle;Signal;HPM_P1;HPM_P2
2022/12/02 00:00:29;;;;;;;62.97;28.30;;;3.70;99.90;;;;;;4728954;28;10001738;-77
2022/12/02 00:02:57;;;;;;;67.75;30.08;;;3.70;99.90;;;;;;5056242;28;20704;-77
2022/12/02 00:05:33;;;;;;;67.50;29.85;;;3.70;99.90;;;;;;5094382;28;20126;-77
2022/12/02 00:08:35;;;;;;;71.82;30.50;;;3.70;99.90;;;;;;5098781;27;20108;-77
2022/12/02 00:11:05;;;;;;;69.57;29.92;;;3.60;99.90;;;;;;5018975;28;20076;-77
2022/12/02 00:13:42;;;;;;;72.70;30.25;;;3.60;99.90;;;;;;5081500;28;20039;-77
2022/12/02 00:16:22;;;;;;;67.03;29.02;;;3.60;99.90;;;;;;5094611;28;20525;-77
2022/12/02 00:18:48;;;;;;;63.58;27.30;;;3.60;99.90;;;;;;5090402;27;20081;-77
2022/12/02 00:21:14;;;;;;;63.65;28.35;;;3.60;99.90;;;;;;5097043;28;20024;-76
2022/12/02 00:23:40;;;;;;;64.93;28.90;;;3.60;99.90;;;;;;5099454;27;20140;-77
2022/12/02 00:26:06;;;;;;;63.92;29.05;;;3.60;99.90;;;;;;5101644;28;20055;-77
2022/12/02 00:28:31;;;;;;;60.40;26.48;;;3.60;99.90;;;;;;5096713;27;20040;-77
2022/12/02 00:30:57;;;;;;;56.88;25.65;;;3.60;99.90;;;;;;5095255;28;20027;-77
2022/12/02 00:33:22;;;;;;;58.70;26.42;;;3.60;99.90;;;;;;5089576;28;20144;-76
2022/12/02 00:35:48;;;;;;;59.03;26.52;;;3.60;99.90;;;;;;5081014;28;20461;-77
2022/12/02 00:38:14;;;;;;;56.80;25.42;;;3.50;99.90;;;;;;5080714;28;20016;-76
2022/12/02 00:40:40;;;;;;;55.35;26.23;;;3.60;99.90;;;;;;5081658;28;20028;-76
2022/12/02 00:48:35;;;;;;;49.92;24.92;;;3.60;99.90;;;;;;5084800;28;20051;-76
2022/12/02 00:51:01;;;;;;;51.63;24.30;;;3.50;99.90;;;;;;5090452;28;20024;-76
2022/12/02 00:53:27;;;;;;;49.63;24.75;;;3.50;99.90;;;;;;5075501;28;20036;-77
2022/12/02 00:55:52;;;;;;;52.72;24.52;;;3.50;99.90;;;;;;5077738;28;20031;-76
2022/12/02 00:58:18;;;;;;;53.72;24.83;;;3.60;99.90;;;;;;5079828;28;20042;-77
2022/12/02 01:00:44;;;;;;;51.35;25.15;;;3.60;99.90;;;;;;5079594;28;20418;-77
2022/12/02 01:03:09;;;;;;;54.17;25.13;;;3.50;99.90;;;;;;5067587;28;20046;-77
2022/12/02 01:05:35;;;;;;;54.85;25.30;;;3.50;99.90;;;;;;5074003;28;20331;-77
2022/12/02 01:08:01;;;;;;;55.58;25.50;;;3.50;99.90;;;;;;5084322;28;20478;-77
2022/12/02 01:10:26;;;;;;;52.03;24.08;;;3.50;99.90;;;;;;5080541;28;20059;-76
2022/12/02 01:12:52;;;;;;;52.13;25.35;;;3.50;99.90;;;;;;5081854;28;20027;-77
2022/12/02 01:15:18;;;;;;;52.33;24.85;;;3.40;99.90;;;;;;5075129;28;20048;-77
2022/12/02 01:17:43;;;;;;;52.55;25.23;;;3.50;99.90;;;;;;5082187;28;20050;-77
2022/12/02 01:20:10;;;;;;;51.08;24.45;;;3.50;99.90;;;;;;5075119;28;20155;-76
2022/12/02 01:22:35;;;;;;;51.78;24.40;;;3.50;99.90;;;;;;5079077;28;20035;-76
2022/12/02 01:25:01;;;;;;;52.17;25.20;;;3.40;99.90;;;;;;5080943;28;20020;-76
2022/12/02 01:27:27;;;;;;;48.00;23.52;;;3.50;99.90;;;;;;5082494;28;20036;-76
2022/12/02 01:29:52;;;;;;;49.22;23.45;;;3.50;99.90;;;;;;5081922;28;20028;-76
2022/12/02 01:32:19;;;;;;;48.38;23.40;;;3.50;99.90;;;;;;5074514;28;20894;-76
2022/12/02 01:34:45;;;;;;;49.90;23.88;;;3.50;99.90;;;;;;5078232;28;20600;-76
2022/12/02 01:37:11;;;;;;;49.30;24.10;;;3.50;99.90;;;;;;5075118;28;20020;-77
2022/12/02 01:39:37;;;;;;;51.53;23.83;;;3.40;99.90;;;;;;5078305;28;20028;-77
2022/12/02 01:42:03;;;;;;;47.83;22.85;;;3.40;99.90;;;;;;5080797;28;20508;-76
2022/12/02 01:44:30;;;;;;;45.65;23.20;;;3.40;99.90;;;;;;5080801;28;20044;-76
2022/12/02 01:46:55;;;;;;;43.17;22.38;;;3.40;99.90;;;;;;5075296;28;20036;-76
2022/12/02 01:49:21;;;;;;;46.90;22.80;;;3.40;99.90;;;;;;5084113;28;20024;-76
2022/12/02 01:51:47;;;;;;;44.30;22.15;;;3.40;99.90;;;;;;5080682;28;21965;-76
2022/12/02 01:54:13;;;;;;;43.50;22.40;;;3.40;99.90;;;;;;5078450;28;20492;-76
2022/12/02 01:56:38;;;;;;;44.35;22.13;;;3.40;99.90;;;;;;5072992;28;20126;-76
2022/12/02 01:59:04;;;;;;;41.97;22.33;;;3.40;99.90;;;;;;5078960;28;20059;-76
2022/12/02 02:01:32;;;;;;;45.33;22.83;;;3.40;99.90;;;;;;5076246;28;20020;-76
2022/12/02 02:03:59;;;;;;;40.17;20.63;;;3.40;99.90;;;;;;5079082;28;20035;-77
2022/12/02 02:06:27;;;;;;;42.92;21.50;;;3.40;99.90;;;;;;5075624;28;20093;-76
2022/12/02 02:08:53;;;;;;;43.25;21.58;;;3.40;99.90;;;;;;5078567;28;20107;-77
2022/12/02 02:11:19;;;;;;;38.33;20.42;;;3.40;99.90;;;;;;5081345;28;20043;-76
2022/12/02 02:13:45;;;;;;;38.88;20.40;;;3.40;99.90;;;;;;5078334;28;20064;-77
2022/12/02 02:16:14;;;;;;;37.95;19.48;;;3.40;99.90;;;;;;5082993;28;20036;-76
2022/12/02 02:18:40;;;;;;;40.60;20.60;;;3.40;99.90;;;;;;5082719;28;20486;-77
2022/12/02 02:21:15;;;;;;;37.85;19.42;;;3.40;99.90;;;;;;5074670;28;20089;-76
2022/12/02 02:23:41;;;;;;;36.08;18.70;;;3.40;99.90;;;;;;5080140;28;20024;-77
2022/12/02 02:26:06;;;;;;;34.20;18.13;;;3.40;99.90;;;;;;5081059;28;20022;-77
2022/12/02 02:28:32;;;;;;;35.20;18.00;;;3.30;99.90;;;;;;5071516;28;20058;-76
2022/12/02 02:30:58;;;;;;;34.20;17.48;;;3.30;99.90;;;;;;5073933;28;20024;-76
2022/12/02 02:33:28;;;;;;;32.70;17.25;;;3.30;99.90;;;;;;5075000;28;20398;-76
2022/12/02 02:35:54;;;;;;;32.92;17.88;;;3.30;99.90;;;;;;5082930;28;20082;-76
2022/12/02 02:38:25;;;;;;;36.33;18.35;;;3.30;99.90;;;;;;5073807;28;20033;-76
2022/12/02 02:40:52;;;;;;;33.40;16.77;;;3.30;99.90;;;;;;5083050;28;20107;-76
2022/12/02 02:43:20;;;;;;;32.67;17.17;;;3.30;99.90;;;;;;5083321;28;20064;-76
2022/12/02 02:45:47;;;;;;;30.70;17.17;;;3.30;99.90;;;;;;5080337;28;20570;-76
2022/12/02 02:48:14;;;;;;;30.25;16.38;;;3.20;99.90;;;;;;5075215;28;20032;-76
2022/12/02 02:50:43;;;;;;;35.83;16.60;;;3.20;99.90;;;;;;5080705;28;20514;-76
2022/12/02 02:53:10;;;;;;;33.30;17.70;;;3.20;99.90;;;;;;5075948;28;20055;-76
2022/12/02 02:55:36;;;;;;;35.45;17.98;;;3.10;99.90;;;;;;5080003;28;20490;-76
2022/12/02 02:58:14;;;;;;;33.08;16.65;;;3.20;99.90;;;;;;5075674;28;20039;-76
2022/12/02 03:00:43;;;;;;;31.05;17.63;;;3.10;99.90;;;;;;5072359;28;20111;-76
2022/12/02 03:03:11;;;;;;;27.45;15.82;;;3.10;99.90;;;;;;5072229;28;20036;-76
2022/12/02 03:05:38;;;;;;;34.35;17.40;;;3.10;99.90;;;;;;5079274;28;20508;-76
2022/12/02 03:08:04;;;;;;;28.27;16.15;;;3.10;99.90;;;;;;5073564;28;20107;-76
2022/12/02 03:10:30;;;;;;;30.63;15.95;;;3.10;99.90;;;;;;5080091;28;20035;-76
2022/12/02 03:12:57;;;;;;;28.65;16.10;;;3.00;99.90;;;;;;5086842;28;20032;-76
2022/12/02 03:15:26;;;;;;;30.48;16.45;;;3.00;99.90;;;;;;5080315;28;20067;-77
2022/12/02 03:17:52;;;;;;;33.00;16.85;;;3.00;99.90;;;;;;5076857;28;20027;-77
2022/12/02 03:20:18;;;;;;;28.45;15.30;;;3.00;99.90;;;;;;5080425;28;20508;-75
2022/12/02 03:22:44;;;;;;;28.05;15.85;;;3.00;99.90;;;;;;5076730;28;20448;-76
2022/12/02 03:25:10;;;;;;;31.90;15.82;;;3.00;99.90;;;;;;5074384;28;20059;-76
2022/12/02 03:27:36;;;;;;;29.63;15.90;;;3.00;99.90;;;;;;5081736;28;20068;-74
2022/12/02 03:30:03;;;;;;;32.10;16.40;;;3.00;99.90;;;;;;5081421;28;20055;-75
2022/12/02 03:32:28;;;;;;;33.15;16.27;;;2.90;99.90;;;;;;5075621;28;20487;-75
2022/12/02 03:34:54;;;;;;;28.05;15.15;;;2.90;99.90;;;;;;5086553;28;20093;-74
2022/12/02 03:37:22;;;;;;;30.65;16.38;;;2.90;99.90;;;;;;5084860;28;20089;-74
2022/12/02 03:39:48;;;;;;;28.20;15.15;;;3.00;99.90;;;;;;5077731;28;20107;-74
2022/12/02 03:42:14;;;;;;;25.33;14.77;;;2.90;99.90;;;;;;5076247;28;20036;-75
2022/12/02 03:44:41;;;;;;;28.55;15.27;;;2.90;99.90;;;;;;5078151;28;20190;-74
2022/12/02 03:47:07;;;;;;;28.50;14.82;;;2.90;99.90;;;;;;5082420;28;20186;-74
2022/12/02 03:49:34;;;;;;;27.85;15.15;;;2.80;99.90;;;;;;5086152;28;20160;-73
2022/12/02 03:51:59;;;;;;;26.75;15.30;;;2.80;99.90;;;;;;5081027;28;20096;-74
2022/12/02 03:54:25;;;;;;;27.73;14.88;;;2.80;99.90;;;;;;5082122;28;20394;-74
2022/12/02 03:56:51;;;;;;;25.83;14.05;;;2.90;99.90;;;;;;5083529;28;20063;-75
2022/12/02 03:59:24;;;;;;;28.52;15.35;;;2.80;99.90;;;;;;5084785;28;20079;-74
2022/12/02 04:01:49;;;;;;;27.30;14.75;;;2.80;99.90;;;;;;5075733;28;20052;-74
2022/12/02 04:04:15;;;;;;;25.77;14.65;;;2.80;99.90;;;;;;5071982;28;20063;-75
2022/12/02 04:06:41;;;;;;;27.65;15.48;;;2.80;99.90;;;;;;5077131;28;20020;-74
2022/12/02 04:09:06;;;;;;;27.95;14.88;;;2.80;99.90;;;;;;5085222;28;20384;-75
2022/12/02 04:11:32;;;;;;;29.75;14.95;;;2.80;99.90;;;;;;5080259;28;20093;-75
2022/12/02 04:13:58;;;;;;;30.63;15.45;;;2.70;99.90;;;;;;5078210;28;20030;-75
2022/12/02 04:16:23;;;;;;;28.23;15.45;;;2.70;99.90;;;;;;5082342;28;20036;-75
2022/12/02 04:18:49;;;;;;;28.63;15.75;;;2.70;99.90;;;;;;5083810;28;20678;-75
2022/12/02 04:21:14;;;;;;;33.03;15.43;;;2.70;99.90;;;;;;5075346;28;20046;-75
2022/12/02 04:23:40;;;;;;;28.38;15.57;;;2.70;99.90;;;;;;5079322;28;20567;-75
2022/12/02 04:26:06;;;;;;;32.38;16.35;;;2.70;99.90;;;;;;5084842;28;20126;-75
2022/12/02 04:28:31;;;;;;;31.02;16.08;;;2.70;99.90;;;;;;5083119;28;20032;-74
2022/12/02 04:30:57;;;;;;;28.45;14.77;;;2.70;99.90;;;;;;5078373;28;20080;-75
2022/12/02 04:33:23;;;;;;;27.40;14.18;;;2.70;99.90;;;;;;5074862;28;20027;-75
2022/12/02 04:35:48;;;;;;;26.40;14.52;;;2.70;99.90;;;;;;5078324;28;20020;-75
2022/12/02 04:38:14;;;;;;;28.13;15.18;;;2.70;99.90;;;;;;5080227;28;20016;-74
2022/12/02 04:40:39;;;;;;;29.42;15.43;;;2.60;99.90;;;;;;5080794;28;20033;-74
2022/12/02 04:43:05;;;;;;;26.90;14.20;;;2.60;99.90;;;;;;5077486;28;20799;-74
2022/12/02 04:45:31;;;;;;;25.88;14.90;;;2.60;99.90;;;;;;5079541;28;20020;-74
2022/12/02 04:47:57;;;;;;;26.15;14.60;;;2.60;99.90;;;;;;5080071;28;20025;-74
2022/12/02 04:50:23;;;;;;;27.08;14.63;;;2.60;99.90;;;;;;5069163;28;20089;-74
2022/12/02 04:52:48;;;;;;;27.98;15.65;;;2.60;99.90;;;;;;5078731;28;20043;-74
2022/12/02 04:55:14;;;;;;;27.02;14.85;;;2.60;99.90;;;;;;5077663;28;20056;-74
2022/12/02 04:57:39;;;;;;;25.95;14.90;;;2.60;99.90;;;;;;5082238;28;20024;-74
2022/12/02 05:00:06;;;;;;;28.58;15.55;;;2.50;99.90;;;;;;5078224;28;20129;-74
2022/12/02 05:02:33;;;;;;;30.58;16.55;;;2.50;99.90;;;;;;5079031;28;20103;-74
2022/12/02 05:04:58;;;;;;;28.35;16.15;;;2.50;99.90;;;;;;5080087;28;20035;-74
2022/12/02 05:07:24;;;;;;;31.55;16.70;;;2.50;99.90;;;;;;5076976;28;20425;-74
2022/12/02 05:09:50;;;;;;;29.58;15.68;;;2.50;99.90;;;;;;5077844;28;20028;-75
2022/12/02 05:12:16;;;;;;;33.45;16.52;;;2.50;99.90;;;;;;5074713;28;20039;-74
2022/12/02 05:14:41;;;;;;;32.53;17.13;;;2.50;99.90;;;;;;5074082;28;20074;-74
2022/12/02 05:17:07;;;;;;;33.17;17.15;;;2.50;99.90;;;;;;5082297;28;20477;-74
2022/12/02 05:19:33;;;;;;;30.30;16.85;;;2.50;99.90;;;;;;5078964;28;20059;-74
2022/12/02 05:21:58;;;;;;;32.53;17.15;;;2.40;99.90;;;;;;5079869;28;20024;-74
2022/12/02 05:24:24;;;;;;;34.72;17.55;;;2.50;99.90;;;;;;5085207;28;20060;-74
2022/12/02 05:26:50;;;;;;;37.65;18.15;;;2.40;99.90;;;;;;5083007;28;20089;-75
2022/12/02 05:29:15;;;;;;;35.42;18.60;;;2.40;99.90;;;;;;5078719;28;20020;-74
2022/12/02 05:31:41;;;;;;;33.38;18.27;;;2.40;99.90;;;;;;5077888;28;20036;-74
2022/12/02 05:34:06;;;;;;;33.13;17.90;;;2.40;99.90;;;;;;5074382;28;20168;-75
2022/12/02 05:36:32;;;;;;;37.38;18.98;;;2.40;99.90;;;;;;5078017;28;20055;-75
2022/12/02 05:38:58;;;;;;;35.13;17.85;;;2.40;99.90;;;;;;5078361;28;20030;-74
2022/12/02 05:41:23;;;;;;;37.03;19.13;;;2.40;99.90;;;;;;5082799;28;20474;-75
2022/12/02 05:43:49;;;;;;;35.75;18.67;;;2.40;99.90;;;;;;5078938;28;20055;-75
2022/12/02 05:46:20;;;;;;;36.95;18.35;;;2.30;99.90;;;;;;5073719;28;20101;-75
2022/12/02 05:48:47;;;;;;;37.10;18.85;;;2.30;99.90;;;;;;5083713;28;20040;-75
2022/12/02 05:51:18;;;;;;;39.17;19.85;;;2.20;99.90;;;;;;5084750;28;20056;-75
2022/12/02 05:53:46;;;;;;;41.92;19.83;;;2.20;99.90;;;;;;5075467;28;20036;-75
2022/12/02 05:56:24;;;;;;;39.22;20.98;;;2.20;99.90;;;;;;5080594;28;20720;-75
2022/12/02 05:58:51;;;;;;;41.22;20.70;;;2.20;99.90;;;;;;5077040;28;20056;-75
2022/12/02 06:01:24;;;;;;;43.45;21.73;;;2.20;99.90;;;;;;5078331;28;20429;-75
2022/12/02 06:03:50;;;;;;;48.28;22.75;;;2.20;99.90;;;;;;5069340;28;20028;-75
2022/12/02 06:06:17;;;;;;;42.83;22.35;;;;;;;;;;5072991;28;20032;-75
2022/12/02 06:08:43;;;;;;;47.90;23.52;;;;;;;;;;5069644;28;20063;-75
2022/12/02 06:11:21;;;;;;;51.28;24.52;;;;;;;;;;5067816;28;20085;-75
2022/12/02 06:13:47;;;;;;;47.53;23.58;;;;;;;;;;5074589;28;20028;-75
2022/12/02 06:16:17;;;;;;;49.50;24.75;;;;;;;;;;5074003;28;20036;-75
2022/12/02 06:18:43;;;;;;;48.42;23.85;;;;;;;;;;5073550;28;20048;-75
2022/12/02 06:21:15;;;;;;;52.03;25.33;;;;;;;;;;5071631;28;20056;-75
2022/12/02 06:23:44;;;;;;;49.15;24.40;;;;;;;;;;5080422;28;20033;-75
2022/12/02 06:26:13;;;;;;;53.83;26.10;;;2.30;99.90;;;;;;5075859;28;20501;-75
2022/12/02 06:28:41;;;;;;;53.90;26.35;;;2.20;99.90;;;;;;5084548;28;20101;-75
2022/12/02 06:31:19;;;;;;;49.83;25.55;;;2.10;99.90;;;;;;5077463;28;20040;-75
2022/12/02 06:33:50;;;;;;;53.42;24.52;;;2.10;99.90;;;;;;5080479;28;20405;-75
2022/12/02 06:36:32;;;;;;;55.60;26.60;;;2.00;99.90;;;;;;5072460;28;20028;-75
2022/12/02 06:39:19;;;;;;;52.58;26.65;;;2.10;99.90;;;;;;5078983;28;20028;-75
2022/12/02 06:41:46;;;;;;;57.45;25.98;;;2.10;99.90;;;;;;5084494;28;20272;-75
2022/12/02 06:47:35;;;;;;;57.83;25.15;;;2.00;99.90;;;;;;5081670;28;20093;-75
2022/12/02 06:50:03;;;;;;;52.33;25.88;;;2.00;99.90;;;;;;5048898;28;20406;-75
2022/12/02 06:52:33;;;;;;;54.72;26.77;;;2.00;99.90;;;;;;5079358;28;20031;-75
2022/12/02 06:54:59;;;;;;;52.75;25.80;;;2.00;99.90;;;;;;5081176;28;20082;-75
2022/12/02 06:57:26;;;;;;;54.22;26.48;;;2.00;99.90;;;;;;5085284;28;20036;-74
2022/12/02 06:59:51;;;;;;;50.95;25.75;;;2.00;99.90;;;;;;5087049;28;20039;-75
2022/12/02 07:02:30;;;;;;;60.85;27.40;;;2.00;99.90;;;;;;5076874;28;20028;-76
2022/12/02 07:04:57;;;;;;;53.13;25.00;;;2.00;99.90;;;;;;5079155;28;20541;-75
2022/12/02 07:07:28;;;;;;;53.42;25.45;;;2.00;99.90;;;;;;5083497;28;20036;-75
2022/12/02 07:09:55;;;;;;;54.38;26.60;;;2.00;99.90;;;;;;5083592;28;20042;-75
2022/12/02 07:12:24;;;;;;;51.33;24.85;;;2.00;99.90;;;;;;5082056;28;20055;-75
2022/12/02 07:14:51;;;;;;;56.17;26.58;;;2.00;99.90;;;;;;5082639;28;20036;-74
2022/12/02 07:17:33;;;;;;;54.53;26.27;;;2.00;99.90;;;;;;5077113;28;23668;-75
2022/12/02 07:20:05;;;;;;;41.88;20.75;;;2.00;99.90;;;;;;5085912;28;20024;-75
2022/12/02 07:22:43;;;;;;;55.88;26.35;;;2.00;99.90;;;;;;5078915;28;20044;-74
2022/12/02 07:25:08;;;;;;;52.55;25.27;;;1.90;99.90;;;;;;5082065;28;20036;-75
2022/12/02 07:27:38;;;;;;;52.67;24.13;;;2.00;99.90;;;;;;5078363;28;20020;-75
2022/12/02 07:30:23;;;;;;;54.80;25.02;;;2.00;99.90;;;;;;5077849;28;20508;-75
2022/12/02 07:32:48;;;;;;;51.40;24.67;;;2.00;99.90;;;;;;5079092;28;20028;-75
2022/12/02 07:35:14;;;;;;;51.60;25.10;;;2.00;99.90;;;;;;5086203;28;20046;-76
2022/12/02 07:37:39;;;;;;;50.80;23.98;;;2.00;99.90;;;;;;5084932;28;20081;-75
2022/12/02 07:40:06;;;;;;;47.85;24.45;;;2.00;99.90;;;;;;5080448;28;20454;-75
2022/12/02 07:42:31;;;;;;;49.03;24.45;;;2.00;99.90;;;;;;5079112;28;20122;-75
2022/12/02 07:44:57;;;;;;;48.20;24.40;;;2.10;99.90;;;;;;5070616;28;20135;-75
2022/12/02 07:47:23;;;;;;;49.10;24.40;;;2.10;99.90;;;;;;5074579;28;20025;-75
2022/12/02 07:49:48;;;;;;;51.35;24.35;;;2.10;99.90;;;;;;5077610;28;20324;-75
2022/12/02 07:52:14;;;;;;;50.85;25.33;;;2.10;99.90;;;;;;5074144;28;20809;-75
2022/12/02 07:54:39;;;;;;;54.60;25.30;;;2.10;99.90;;;;;;5083500;28;20491;-75
2022/12/02 07:57:05;;;;;;;55.22;27.15;;;2.10;99.90;;;;;;5083501;28;20036;-75
2022/12/02 07:59:31;;;;;;;54.53;25.88;;;2.10;99.90;;;;;;5080539;28;20024;-75
2022/12/02 08:01:56;;;;;;;55.85;27.48;;;2.10;99.90;;;;;;5077507;28;20039;-76
2022/12/02 08:04:22;;;;;;;51.40;26.30;;;2.10;99.90;;;;;;5077540;28;20023;-75
2022/12/02 08:06:47;;;;;;;54.30;27.15;;;2.10;99.90;;;;;;5079818;28;20034;-75
2022/12/02 08:09:13;;;;;;;53.70;26.80;;;2.10;99.90;;;;;;5083331;28;20054;-75
2022/12/02 08:11:39;;;;;;;55.65;26.67;;;2.10;99.90;;;;;;5076812;28;20086;-75
2022/12/02 08:14:04;;;;;;;51.00;25.92;;;2.10;99.90;;;;;;5075228;28;20028;-75
2022/12/02 08:16:30;;;;;;;54.80;26.83;;;2.10;99.90;;;;;;5086041;28;20543;-75
2022/12/02 08:18:56;;;;;;;54.90;26.45;;;2.10;99.90;;;;;;5081938;28;20085;-75
2022/12/02 08:21:21;;;;;;;53.10;25.92;;;2.10;99.90;;;;;;5084258;28;20024;-75
2022/12/02 08:23:47;;;;;;;54.90;26.25;;;2.10;99.90;;;;;;5081929;28;20114;-76
2022/12/02 08:26:12;;;;;;;54.67;26.23;;;2.10;99.90;;;;;;5079461;28;20394;-75
2022/12/02 08:28:38;;;;;;;53.03;27.20;;;2.10;99.90;;;;;;5075033;28;20043;-75
2022/12/02 08:31:04;;;;;;;54.97;26.40;;;2.20;99.90;;;;;;5081376;28;20081;-74
2022/12/02 08:33:30;;;;;;;53.70;25.42;;;2.20;99.90;;;;;;5072057;28;20035;-75
2022/12/02 08:35:55;;;;;;;53.15;25.85;;;2.20;99.90;;;;;;5071287;28;20028;-75
2022/12/02 08:38:21;;;;;;;56.35;27.35;;;2.20;99.90;;;;;;5082947;28;20063;-75
2022/12/02 08:40:46;;;;;;;51.72;26.05;;;2.20;99.90;;;;;;5079370;28;20024;-75
2022/12/02 08:43:12;;;;;;;54.53;26.58;;;2.20;99.90;;;;;;5078922;28;20066;-75
2022/12/02 08:45:38;;;;;;;52.50;26.38;;;2.20;99.90;;;;;;5077871;28;20035;-76
2022/12/02 08:48:04;;;;;;;53.50;26.98;;;2.20;99.90;;;;;;5081401;28;20032;-79
2022/12/02 08:50:29;;;;;;;56.80;27.95;;;2.20;99.90;;;;;;5076615;28;20085;-78
2022/12/02 08:52:55;;;;;;;59.05;27.27;;;2.20;99.90;;;;;;5075664;28;20036;-76
2022/12/02 08:55:21;;;;;;;57.47;27.55;;;2.20;99.90;;;;;;5081497;28;20038;-76
2022/12/02 08:57:46;;;;;;;57.75;27.08;;;2.20;99.90;;;;;;5081202;28;20020;-76
2022/12/02 09:00:13;;;;;;;51.97;26.75;;;2.20;99.90;;;;;;5078055;28;20020;-74
2022/12/02 09:02:38;;;;;;;55.90;26.83;;;2.20;99.90;;;;;;5071046;28;20111;-76
2022/12/02 09:05:04;;;;;;;54.92;26.83;;;2.20;99.90;;;;;;5076689;28;20538;-77
2022/12/02 09:07:30;;;;;;;53.70;27.00;;;2.20;99.90;;;;;;5080712;28;20111;-76
2022/12/02 09:09:55;;;;;;;52.38;26.48;;;2.20;99.90;;;;;;5086546;28;20130;-79
2022/12/02 09:12:21;;;;;;;51.35;26.05;;;2.20;99.90;;;;;;5078713;28;20152;-76
2022/12/02 09:14:47;;;;;;;51.95;26.17;;;2.20;99.90;;;;;;5076830;28;20094;-76
2022/12/02 09:17:12;;;;;;;49.85;26.85;;;2.20;99.90;;;;;;5082258;28;20031;-77
2022/12/02 09:19:38;;;;;;;55.58;26.92;;;2.20;99.90;;;;;;5077173;28;20477;-75
2022/12/02 09:22:03;;;;;;;56.45;28.15;;;2.10;99.90;;;;;;5078308;28;20024;-77
2022/12/02 09:24:29;;;;;;;48.85;25.50;;;2.20;99.90;;;;;;5081656;28;20115;-75
2022/12/02 09:26:55;;;;;;;54.45;26.63;;;2.20;99.90;;;;;;5078415;28;20110;-75
2022/12/02 09:29:20;;;;;;;52.20;26.30;;;2.20;99.90;;;;;;5084976;28;20047;-76
2022/12/02 09:31:46;;;;;;;53.20;26.08;;;2.20;99.90;;;;;;5079940;28;20152;-75
2022/12/02 09:34:11;;;;;;;49.45;25.00;;;2.20;99.90;;;;;;5080566;28;20119;-75
2022/12/02 09:36:37;;;;;;;49.78;25.08;;;2.20;99.90;;;;;;5072651;28;20024;-75
2022/12/02 09:39:03;;;;;;;51.30;26.40;;;2.20;99.90;;;;;;5079010;28;20107;-75
2022/12/02 09:41:28;;;;;;;49.58;25.60;;;2.20;99.90;;;;;;5082377;28;20043;-75
2022/12/02 09:43:55;;;;;;;49.50;25.48;;;2.20;99.90;;;;;;5070946;28;20079;-74
2022/12/02 09:46:20;;;;;;;49.33;25.30;;;2.20;99.90;;;;;;5056407;28;20024;-75
2022/12/02 09:48:48;;;;;;;50.08;24.92;;;2.20;99.90;;;;;;5068011;28;20035;-74
2022/12/02 09:51:14;;;;;;;45.28;24.08;;;2.20;99.90;;;;;;5061335;28;20098;-75
2022/12/02 09:53:41;;;;;;;43.45;23.40;;;2.20;99.90;;;;;;5056882;28;20040;-74
2022/12/02 09:56:15;;;;;;;50.67;25.40;;;2.30;99.90;;;;;;5060172;28;20045;-76
2022/12/02 09:58:41;;;;;;;45.67;23.45;;;2.20;99.90;;;;;;5059302;28;20024;-77
2022/12/02 10:01:13;;;;;;;49.05;24.02;;;2.20;99.90;;;;;;5060434;28;20028;-75
2022/12/02 10:03:40;;;;;;;41.90;23.33;;;2.20;99.90;;;;;;5050029;28;20040;-74
2022/12/02 10:06:14;;;;;;;47.45;24.63;;;2.20;99.90;;;;;;5051443;28;20029;-75
2022/12/02 10:08:39;;;;;;;46.97;23.95;;;2.20;99.90;;;;;;5059807;28;20043;-75
2022/12/02 10:11:05;;;;;;;45.08;23.52;;;2.20;99.90;;;;;;5060442;28;20554;-75
2022/12/02 10:13:38;;;;;;;45.63;23.73;;;2.20;99.90;;;;;;5052768;28;20449;-73
2022/12/02 10:16:13;;;;;;;35.72;18.17;;;2.20;99.90;;;;;;5066678;28;20032;-74
2022/12/02 10:18:39;;;;;;;44.28;23.23;;;2.20;99.90;;;;;;5064744;28;20538;-73
2022/12/02 10:21:05;;;;;;;45.53;22.92;;;2.20;99.90;;;;;;5060231;28;20728;-74
2022/12/02 10:23:31;;;;;;;43.28;23.58;;;2.20;99.90;;;;;;5064054;28;20074;-75
2022/12/02 10:26:05;;;;;;;42.03;22.02;;;2.30;99.90;;;;;;5057906;28;20037;-75
2022/12/02 10:28:34;;;;;;;45.42;22.75;;;2.20;99.90;;;;;;5063800;28;20065;-75
2022/12/02 10:31:12;;;;;;;43.00;21.50;;;2.20;99.90;;;;;;5063090;28;20687;-74
2022/12/02 10:33:40;;;;;;;40.47;21.05;;;2.30;99.90;;;;;;5057744;28;20074;-74
2022/12/02 10:36:07;;;;;;;45.45;22.33;;;2.30;99.90;;;;;;5058297;28;20036;-75
2022/12/02 10:38:41;;;;;;;42.60;21.25;;;2.30;99.90;;;;;;5059087;28;20072;-75
2022/12/02 10:41:14;;;;;;;39.13;20.75;;;2.30;99.90;;;;;;5060057;28;20032;-73
2022/12/02 10:43:42;;;;;;;37.50;20.33;;;2.30;99.90;;;;;;5063704;28;20094;-74
2022/12/02 10:46:11;;;;;;;35.75;19.42;;;2.30;99.90;;;;;;5074708;28;20115;-74
2022/12/02 10:48:36;;;;;;;33.95;19.20;;;2.30;99.90;;;;;;5081180;28;20051;-74
2022/12/02 10:51:02;;;;;;;38.40;19.67;;;2.30;99.90;;;;;;5074219;28;20087;-75
2022/12/02 10:53:29;;;;;;;37.08;20.08;;;2.30;99.90;;;;;;5079685;28;20035;-76
2022/12/02 10:55:56;;;;;;;32.42;17.90;;;2.30;99.90;;;;;;5078269;28;20075;-73
2022/12/02 10:58:28;;;;;;;35.88;19.67;;;2.30;99.90;;;;;;5081509;28;20055;-75
2022/12/02 11:00:55;;;;;;;36.03;19.67;;;2.30;99.90;;;;;;5089149;28;20032;-73
2022/12/02 11:03:21;;;;;;;35.00;18.75;;;2.30;99.90;;;;;;5083181;28;20024;-73
2022/12/02 11:05:47;;;;;;;33.85;18.27;;;2.30;99.90;;;;;;5076627;28;20593;-73
2022/12/02 11:08:20;;;;;;;32.50;17.73;;;2.40;99.90;;;;;;5078552;28;20024;-73
2022/12/02 11:10:49;;;;;;;33.95;18.35;;;2.40;99.90;;;;;;5084607;28;20039;-73
2022/12/02 11:13:15;;;;;;;30.55;17.48;;;2.40;99.90;;;;;;5083375;28;20043;-73
2022/12/02 11:15:48;;;;;;;29.80;16.98;;;2.40;99.90;;;;;;5087472;28;20119;-73
2022/12/02 11:18:29;;;;;;;27.98;16.25;;;2.40;99.90;;;;;;5082246;28;20113;-73
2022/12/02 11:21:01;;;;;;;26.73;15.77;;;2.40;99.90;;;;;;5081348;28;20051;-73
2022/12/02 11:23:30;;;;;;;30.15;16.60;;;2.40;99.90;;;;;;5080956;28;20016;-72
2022/12/02 11:26:00;;;;;;;27.58;16.77;;;2.40;99.90;;;;;;5084290;28;20059;-73
2022/12/02 11:28:28;;;;;;;28.67;17.00;;;2.40;99.90;;;;;;5081298;28;20597;-73
2022/12/02 11:31:09;;;;;;;31.40;16.50;;;2.40;99.90;;;;;;5083336;28;20136;-73
2022/12/02 11:33:50;;;;;;;27.50;16.17;;;2.40;99.90;;;;;;5085485;28;20039;-73
2022/12/02 11:36:26;;;;;;;27.15;15.18;;;2.40;99.90;;;;;;5084188;28;20057;-73
2022/12/02 11:38:52;;;;;;;28.30;15.10;;;2.30;99.90;;;;;;5083752;28;20033;-74
2022/12/02 11:41:18;;;;;;;28.63;15.57;;;2.30;99.90;;;;;;5086093;28;20081;-73
2022/12/02 11:43:47;;;;;;;27.50;16.10;;;2.30;99.90;;;;;;5078179;28;20046;-73
2022/12/02 11:46:19;;;;;;;27.13;15.73;;;2.30;99.90;;;;;;5083716;28;20090;-74
2022/12/02 11:48:55;;;;;;;26.90;14.40;;;2.30;99.90;;;;;;5081290;28;20101;-73
2022/12/02 11:51:40;;;;;;;29.13;15.57;;;2.40;99.90;;;;;;5080453;28;20390;-73
2022/12/02 11:54:15;;;;;;;29.17;15.38;;;2.30;99.90;;;;;;5082694;28;20077;-73
2022/12/02 11:56:42;;;;;;;26.00;14.88;;;2.40;99.90;;;;;;5083161;28;20036;-74
2022/12/02 11:59:23;;;;;;;24.55;13.98;;;2.30;99.90;;;;;;5083932;28;20147;-73
2022/12/02 12:01:49;;;;;;;25.52;14.85;;;2.30;99.90;;;;;;5080304;28;20016;-75
2022/12/02 12:04:26;;;;;;;25.10;14.73;;;2.30;99.90;;;;;;5074642;28;20031;-74
2022/12/02 12:06:57;;;;;;;26.08;14.57;;;2.30;99.90;;;;;;4387369;28;10000875;-75
2022/12/02 12:09:23;;;;;;;23.80;14.35;;;2.30;99.90;;;;;;5100162;28;20036;-77
2022/12/02 12:12:15;;;;;;;27.25;14.00;;;2.30;99.90;;;;;;5101766;27;20031;-77
2022/12/02 12:14:56;;;;;;;27.60;14.60;;;2.20;99.90;;;;;;5089253;28;20024;-73
2022/12/02 12:17:39;;;;;;;23.83;13.45;;;2.20;99.90;;;;;;5096510;28;20109;-74
2022/12/02 12:20:25;;;;;;;;;;;2.20;99.90;;;;;;5090384;28;20035;-73
2022/12/02 12:22:51;;;;;;;22.90;12.98;;;2.20;99.90;;;;;;5098689;27;19961;-74
2022/12/02 12:25:42;;;;;;;21.08;13.23;;;2.20;99.90;;;;;;5092974;28;20561;-74
2022/12/02 12:28:23;;;;;;;24.55;14.05;;;2.20;99.90;;;;;;5095734;27;20042;-76
2022/12/02 12:30:49;;;;;;;24.60;14.10;;;2.20;99.90;;;;;;5096449;28;20095;-78
2022/12/02 12:33:14;;;;;;;29.27;14.95;;;2.20;99.90;;;;;;5095862;27;20032;-76
2022/12/02 12:35:40;;;;;;;28.88;15.00;;;2.20;99.90;;;;;;5087927;28;20527;-76
2022/12/02 12:38:05;;;;;;;22.50;14.02;;;2.20;99.90;;;;;;5088857;28;20037;-74
2022/12/02 12:40:31;;;;;;;25.45;14.38;;;2.20;99.90;;;;;;5076351;28;20169;-74
2022/12/02 12:42:57;;;;;;;25.70;14.90;;;2.20;99.90;;;;;;5073933;28;20553;-74
2022/12/02 12:45:22;;;;;;;25.33;15.27;;;2.20;99.90;;;;;;5072876;28;20028;-75
2022/12/02 12:47:48;;;;;;;27.40;14.82;;;2.10;99.90;;;;;;5081639;28;20433;-76
2022/12/02 12:50:13;;;;;;;28.23;15.50;;;2.10;99.90;;;;;;5076884;28;20477;-76